Pagrindinis puslapis
METAR-TAF:

METAR-TAF

Oro uostai :

Velykų sala, Čilė

platuma: 27-09S, ilguma: 109-25W, Aukštis: 51 m

Dabartinis oras

Ataskaita buvo paskelbta 1 valandą ir 2 minutes, ne 12:00 UTC
Vėjas 2 kt iš Rytų/Pietryčių
Temperatūra 17°C
Drėgmė 88%
Slėgis 1025 hPa
Matomumas 10 km arba daugiau
nėra debesų žemiau 1500 m ir nėra kamuolinių lietaus debesų

METAR: SCIP 301200Z 12002KT CAVOK 17/15 Q1025 NOSIG

Laikas: 08:02 (13:02 UTC)

Prognozė

Ataskaita buvo paskelbta 2 valandos ir 42 minutes, ne 10:20 UTC
Prognozė galioja nuo 30 metu 12 UTC su 01 metu 12 UTC
Vėjas 4 kt iš Rytų/Pietryčių
Matomumas 10 km arba daugiau
Mažai debesys ne aukštis 3000 ft
Laikinai
nuo 01 metu 03 UTC su 01 metu 12 UTC
Vėjas 4 kt iš Rytų
Matomumas: 7000 m
Išsisklaidę debesys ne aukštis 1200 ft
Su prošvaistėmis ne aukštis 2500 ft
lietus

TAF: SCIP 301020Z 3012/0112 12004KT 9999 FEW030 TX26/3020Z TN17/0108Z TEMPO 0103/0112 09004KT 7000 -SHRA SCT012 BKN025

Orai ataskaitas ir orų prognozės (METAR, TAF).

turimą stotys yra geltonos ir raudonos taškus žemėlapyje.

Perkelti pele per norėdami pamatyti stoties vardą.

Tada spustelėkite, norėdami matyti oro stebėjimo ir prognozės.

Norėdami pakeisti žemėlapį: spustelėkite ant žalios mygtukų su juodo kryžiaus žemyn,; žalią mygtuką su brūkšneliu, jei norite nutolinti; arba žalių rodyklių gretimoms žemėlapius.


METAR-TAF: